F/V Fleur Des Vagues — FPEJ — position and weather

sailwx.info

Track history (hours):
 
Tides and Currents Weather Stations Pressure Air Temp Water Temp Dewpoint Dewpoint Depression Visibility Wind Speed Wind Dir Waves Ship Positions

F/V Fleur Des Vagues

Last reported at 2017-Jan-16 14:33 UTC. Time now 2017-Jan-17 10:59 UTC.
Position N 46°28' W 001°47'.

Length 16 m.

Type: Fishing. MMSI: 227893000.

Date/timePositionNaut miles runAvg speedWind from/ knotsBaromVisibWave heightAir tempDewpointWater temp
2017-Jan-16 14:33N 46°28' W 001°47'8 8.3
2017-Jan-16 13:33N 46°20' W 001°49'8 8.1
2017-Jan-16 12:33N 46°12' W 001°52'1 0.1
2017-Jan-16 07:19N 46°11' W 001°52'6 8.5
2017-Jan-16 06:33N 46°18' W 001°50'8 8.4
2017-Jan-16 05:33N 46°26' W 001°48'4 4.0
2017-Jan-16 04:33N 46°30' W 001°47'0 0.0
2017-Jan-16 03:33N 46°30' W 001°47'0 0.0
2017-Jan-16 02:33N 46°30' W 001°47'0 0.0
2017-Jan-16 01:33N 46°30' W 001°47'0 0.0
2017-Jan-16 00:33N 46°30' W 001°47'0 0.0
2017-Jan-15 23:33N 46°30' W 001°47'0 0.0
2017-Jan-15 22:33N 46°30' W 001°47'0 0.0
2017-Jan-15 21:33N 46°30' W 001°47'0 0.0
2017-Jan-15 20:33N 46°30' W 001°47'0 0.0
2017-Jan-15 19:33N 46°30' W 001°47'0 0.0
2017-Jan-15 18:33N 46°30' W 001°47'0 0.0
2017-Jan-15 17:33N 46°30' W 001°47'0 0.0
2017-Jan-15 16:33N 46°30' W 001°47'0 0.0
2017-Jan-15 15:33N 46°30' W 001°47'0 0.0
2017-Jan-15 14:33N 46°30' W 001°47'2 1.7
2017-Jan-15 13:33N 46°28' W 001°47'8 7.8
2017-Jan-15 12:33N 46°21' W 001°51'8 7.6
2017-Jan-15 11:33N 46°14' W 001°54'  
2017-Jan-12 13:29N 46°13' W 001°54'7 8.0
2017-Jan-12 12:33N 46°20' W 001°51'8 8.3
2017-Jan-12 11:33N 46°28' W 001°47'2 1.7
2017-Jan-12 10:33N 46°30' W 001°47'0 0.0
2017-Jan-12 09:33N 46°30' W 001°47'0 0.0
2017-Jan-12 08:33N 46°30' W 001°47'0 0.0
2017-Jan-12 07:33N 46°30' W 001°47'0 0.0
2017-Jan-12 06:33N 46°30' W 001°47'0 0.0
2017-Jan-12 05:33N 46°30' W 001°47'0 0.0
2017-Jan-12 04:33N 46°30' W 001°47'0 0.0
2017-Jan-12 03:33N 46°30' W 001°47'0 0.0
2017-Jan-12 02:33N 46°30' W 001°47'0 0.0
2017-Jan-12 01:33N 46°30' W 001°47'0 0.0
2017-Jan-12 00:33N 46°30' W 001°47'0 0.0
2017-Jan-11 23:33N 46°30' W 001°47'0 0.0
2017-Jan-11 22:33N 46°30' W 001°47'0 0.0
2017-Jan-11 21:33N 46°30' W 001°47'0 0.0
2017-Jan-11 20:33N 46°30' W 001°47'0 0.4
2017-Jan-11 19:33N 46°30' W 001°48'3 2.8
2017-Jan-11 18:34N 46°27' W 001°48'3 3.0
2017-Jan-11 17:31N 46°30' W 001°47'0 0.0
2017-Jan-11 16:31N 46°30' W 001°47'0 0.0
2017-Jan-11 15:31N 46°30' W 001°47'0 0.0
2017-Jan-11 14:31N 46°30' W 001°47'0 0.0
2017-Jan-11 13:33N 46°30' W 001°47'4 4.0
2017-Jan-11 12:33N 46°26' W 001°48'8 8.5
2017-Jan-11 11:33N 46°18' W 001°52'  
2017-Jan-08 22:32N 46°12' W 001°55'6 6.0
2017-Jan-08 21:33N 46°18' W 001°52'6 6.0
2017-Jan-08 20:33N 46°24' W 001°49'6 5.9
2017-Jan-08 19:33N 46°30' W 001°47'0 0.5
2017-Jan-08 18:33N 46°30' W 001°47'0 0.0
2017-Jan-08 17:33N 46°30' W 001°47'0 0.0
2017-Jan-08 16:33N 46°30' W 001°47'0 0.0
2017-Jan-08 15:33N 46°30' W 001°47'0 0.0
2017-Jan-08 14:34N 46°30' W 001°47'0 0.0
2017-Jan-08 13:33N 46°30' W 001°47'2 2.1
2017-Jan-08 12:33N 46°28' W 001°48'8 8.0
2017-Jan-08 11:33N 46°20' W 001°51'17 0.5
2017-Jan-07 03:19N 46°04' W 001°58'  
Track history (hours):
 
Tides and Currents Weather Stations Pressure Air Temp Water Temp Dewpoint Dewpoint Depression Visibility Wind Speed Wind Dir Waves Ship Positions

F/V Fleur Des Vagues

Last reported at 2017-Jan-16 14:33 UTC. Time now 2017-Jan-17 10:59 UTC.
Position N 46°28' W 001°47'.

Length 16 m.

Type: Fishing. MMSI: 227893000.

Date/timePositionNaut miles runAvg speedWind from/ knotsBaromVisibWave heightAir tempDewpointWater temp
2017-Jan-16 14:33N 46°28' W 001°47'8 8.3
2017-Jan-16 13:33N 46°20' W 001°49'8 8.1
2017-Jan-16 12:33N 46°12' W 001°52'1 0.1
2017-Jan-16 07:19N 46°11' W 001°52'6 8.5
2017-Jan-16 06:33N 46°18' W 001°50'8 8.4
2017-Jan-16 05:33N 46°26' W 001°48'4 4.0
2017-Jan-16 04:33N 46°30' W 001°47'0 0.0
2017-Jan-16 03:33N 46°30' W 001°47'0 0.0
2017-Jan-16 02:33N 46°30' W 001°47'0 0.0
2017-Jan-16 01:33N 46°30' W 001°47'0 0.0
2017-Jan-16 00:33N 46°30' W 001°47'0 0.0
2017-Jan-15 23:33N 46°30' W 001°47'0 0.0
2017-Jan-15 22:33N 46°30' W 001°47'0 0.0
2017-Jan-15 21:33N 46°30' W 001°47'0 0.0
2017-Jan-15 20:33N 46°30' W 001°47'0 0.0
2017-Jan-15 19:33N 46°30' W 001°47'0 0.0
2017-Jan-15 18:33N 46°30' W 001°47'0 0.0
2017-Jan-15 17:33N 46°30' W 001°47'0 0.0
2017-Jan-15 16:33N 46°30' W 001°47'0 0.0
2017-Jan-15 15:33N 46°30' W 001°47'0 0.0
2017-Jan-15 14:33N 46°30' W 001°47'2 1.7
2017-Jan-15 13:33N 46°28' W 001°47'8 7.8
2017-Jan-15 12:33N 46°21' W 001°51'8 7.6
2017-Jan-15 11:33N 46°14' W 001°54'  
2017-Jan-12 13:29N 46°13' W 001°54'7 8.0
2017-Jan-12 12:33N 46°20' W 001°51'8 8.3
2017-Jan-12 11:33N 46°28' W 001°47'2 1.7
2017-Jan-12 10:33N 46°30' W 001°47'0 0.0
2017-Jan-12 09:33N 46°30' W 001°47'0 0.0
2017-Jan-12 08:33N 46°30' W 001°47'0 0.0
2017-Jan-12 07:33N 46°30' W 001°47'0 0.0
2017-Jan-12 06:33N 46°30' W 001°47'0 0.0
2017-Jan-12 05:33N 46°30' W 001°47'0 0.0
2017-Jan-12 04:33N 46°30' W 001°47'0 0.0
2017-Jan-12 03:33N 46°30' W 001°47'0 0.0
2017-Jan-12 02:33N 46°30' W 001°47'0 0.0
2017-Jan-12 01:33N 46°30' W 001°47'0 0.0
2017-Jan-12 00:33N 46°30' W 001°47'0 0.0
2017-Jan-11 23:33N 46°30' W 001°47'0 0.0
2017-Jan-11 22:33N 46°30' W 001°47'0 0.0
2017-Jan-11 21:33N 46°30' W 001°47'0 0.0
2017-Jan-11 20:33N 46°30' W 001°47'0 0.4
2017-Jan-11 19:33N 46°30' W 001°48'3 2.8
2017-Jan-11 18:34N 46°27' W 001°48'3 3.0
2017-Jan-11 17:31N 46°30' W 001°47'0 0.0
2017-Jan-11 16:31N 46°30' W 001°47'0 0.0
2017-Jan-11 15:31N 46°30' W 001°47'0 0.0
2017-Jan-11 14:31N 46°30' W 001°47'0 0.0
2017-Jan-11 13:33N 46°30' W 001°47'4 4.0
2017-Jan-11 12:33N 46°26' W 001°48'8 8.5
2017-Jan-11 11:33N 46°18' W 001°52'  
2017-Jan-08 22:32N 46°12' W 001°55'6 6.0
2017-Jan-08 21:33N 46°18' W 001°52'6 6.0
2017-Jan-08 20:33N 46°24' W 001°49'6 5.9
2017-Jan-08 19:33N 46°30' W 001°47'0 0.5
2017-Jan-08 18:33N 46°30' W 001°47'0 0.0
2017-Jan-08 17:33N 46°30' W 001°47'0 0.0
2017-Jan-08 16:33N 46°30' W 001°47'0 0.0
2017-Jan-08 15:33N 46°30' W 001°47'0 0.0
2017-Jan-08 14:34N 46°30' W 001°47'0 0.0
2017-Jan-08 13:33N 46°30' W 001°47'2 2.1
2017-Jan-08 12:33N 46°28' W 001°48'8 8.0
2017-Jan-08 11:33N 46°20' W 001°51'17 0.5
2017-Jan-07 03:19N 46°04' W 001°58'  

Dump ship's entire track history